หน้าหลัก
METAR-TAF:

METAR-TAF

ท่าอากาศยาน :

ท่าอากาศยานนานาชาติกัวลาลัมเปอร์

กัวลาลัมเปอร์, มาเลเซีย

ละติจูด: 02-44N, ลองจิจูด: 101-42E, ความสูง: 21 ม.

การสังเกตสภาพอากาศปัจจุบัน

รายงานได้ทำขึ้นเมื่อ 32 นาทีที่แล้ว ณ เวลา 04:30 UTC
ลม 2 นอตจากทิศทางซึ่งแปรผันได้
อุณหภูมิ 32°C
ความชื้น 63%
ความกดอากาศ 1008 hPa
ทัศนวิสัย 10 กม. หรือมากกว่า
มีเมฆน้อยที่ความสูง 1800 ฟุต

METAR: WMKK 240430Z VRB02KT 9999 FEW018 32/24 Q1008 NOSIG

เวลา: 13:02 (05:02 UTC)

การพยากรณ์

รายงานได้ทำขึ้นเมื่อ 6 ชั่วโมงและ 2 นาทีที่แล้ว ณ เวลา 23:00 UTC
การพยากรณ์มีผลตั้งแต่วันที่ 24 ณ เวลา 00 UTC จนถึงวันที่ 25 ณ เวลา 06 UTC
ลม 5 นอตจากเหนือ/ตะวันออกเฉียงเหนือ
ทัศนวิสัย: 8000 ม.
มีเมฆน้อยที่ความสูง 1000 ฟุต
มีเมฆน้อยที่ความสูง 1700 ฟุต, คิวมูโลนิมบัส.
ชั่วคราว
ตั้งแต่วันที่ 24 ณ เวลา 08 UTC จนถึงวันที่ 24 ณ เวลา 12 UTC
ทัศนวิสัย: 4000 ม.
มีเมฆน้อยที่ความสูง 1700 ฟุต, คิวมูโลนิมบัส.
มีเมฆกระจายเป็นบางส่วนที่ความสูง 1800 ฟุต
พายุฝนฟ้าคะนอง, ฝน,

TAF: WMKK 232300Z 2400/2506 02005KT 8000 FEW010 FEW017CB TEMPO 2408/2412 4000 TSRA FEW017CB SCT018

สังเกตการณ์สภาพอากาศและพยากรณ์อากาศของสนามบินมากกว่า 4000 แห่ง (รายงาน METAR และ TAF).

สถานีที่ดูได้จะแสดงไว้ด้วยจุดสีเหลืองและสีแดงบนแผนที่.

เลื่อนเมาส์ไปเหนือจุดเพื่อดูชื่อสถานี.

แล้วคลิกเพื่อดูสังเกตการณ์และการพยากรณ์สภาพอากาศ.

ในการเปลี่ยนแผนที่: คลิกที่ปุ่มสีเขียวที่มีกากบาทสีดำเพื่อซูมเข้า; ที่ปุ่มสีเขียวที่มีขีดเพื่อซูมออก; หรือที่ลูกศรสีเขียวเพื่อไปยังแผนที่ที่อยู่ติดกัน.


METAR-TAF: